Time;durP1;ratioP1;P1;durP2;ratioP2;P2;SDS_P1;SDS_P2;PMS_P1;PMS_P2;Temp;Humidity;BMP_temperature;BMP_pressure;BME280_temperature;BME280_humidity;BME280_pressure;Samples;Min_cycle;Max_cycle;Signal;HPM_P1;HPM_P2
2023/04/14 00:00:37;;;;;;;8.40;1.70;;;6.90;99.90;;;;;;5052264;28;20211;-69
2023/04/14 00:03:03;;;;;;;7.70;1.77;;;7.40;99.90;;;;;;5052770;28;20213;-69
2023/04/14 00:05:32;;;;;;;8.77;1.53;;;7.10;99.90;;;;;;5052478;28;20192;-69
2023/04/14 00:07:58;;;;;;;5.47;2.00;;;7.20;99.90;;;;;;5051852;28;20648;-68
2023/04/14 00:10:24;;;;;;;8.17;2.03;;;7.20;99.90;;;;;;5051296;28;20188;-69
2023/04/14 00:12:50;;;;;;;6.23;1.50;;;7.20;99.90;;;;;;5051760;28;20177;-68
2023/04/14 00:15:16;;;;;;;8.57;1.60;;;7.20;99.90;;;;;;5051796;28;20589;-69
2023/04/14 00:17:41;;;;;;;13.10;1.70;;;7.20;99.90;;;;;;5052273;28;20551;-69
2023/04/14 00:20:08;;;;;;;9.07;1.83;;;7.20;99.90;;;;;;5047926;28;20189;-70
2023/04/14 00:22:33;;;;;;;9.43;1.93;;;7.00;99.90;;;;;;5048273;28;20220;-69
2023/04/14 00:25:00;;;;;;;10.67;1.93;;;7.30;99.90;;;;;;5052371;28;20173;-68
2023/04/14 00:27:26;;;;;;;8.40;1.97;;;7.30;99.90;;;;;;5051588;28;20170;-68
2023/04/14 00:29:51;;;;;;;7.87;1.90;;;7.40;99.90;;;;;;5049291;28;20311;-68
2023/04/14 00:32:17;;;;;;;10.27;2.10;;;7.60;99.90;;;;;;5044284;28;20264;-68
2023/04/14 00:34:43;;;;;;;11.83;2.27;;;7.40;99.90;;;;;;5048875;28;20538;-72
2023/04/14 00:37:08;;;;;;;7.40;1.80;;;7.40;99.90;;;;;;5051022;28;20677;-70
2023/04/14 00:39:34;;;;;;;3.70;1.60;;;7.40;99.90;;;;;;5048974;28;20215;-71
2023/04/14 00:42:03;;;;;;;9.97;1.47;;;7.60;99.90;;;;;;5050996;28;20217;-71
2023/04/14 00:44:29;;;;;;;6.40;1.77;;;7.60;99.90;;;;;;5047514;28;20188;-71
2023/04/14 00:46:56;;;;;;;5.57;1.60;;;7.60;99.90;;;;;;5045060;28;20538;-70
2023/04/14 00:49:23;;;;;;;6.87;2.00;;;7.50;99.90;;;;;;5047854;28;20181;-71
2023/04/14 00:51:48;;;;;;;6.67;1.93;;;7.70;99.90;;;;;;5045759;28;20209;-71
2023/04/14 00:54:17;;;;;;;11.77;1.50;;;7.70;99.90;;;;;;5050792;28;20274;-71
2023/04/14 00:56:43;;;;;;;6.80;1.70;;;7.70;99.90;;;;;;5051095;28;20247;-71
2023/04/14 00:59:09;;;;;;;6.53;1.60;;;7.70;99.90;;;;;;5050756;28;20220;-70
2023/04/14 01:01:39;;;;;;;7.70;1.43;;;7.70;99.90;;;;;;5050949;28;20695;-71
2023/04/14 01:04:05;;;;;;;5.83;1.50;;;7.80;99.90;;;;;;5050637;28;20288;-70
2023/04/14 01:06:31;;;;;;;5.37;1.27;;;7.70;99.90;;;;;;5051162;28;20640;-69
2023/04/14 01:08:58;;;;;;;8.83;1.43;;;8.20;99.90;;;;;;5050853;28;20227;-70
2023/04/14 01:11:47;;;;;;;5.17;1.07;;;7.60;99.90;;;;;;5051195;28;20663;-71
2023/04/14 01:14:42;;;;;;;11.33;1.40;;;7.50;99.90;;;;;;5050950;28;20176;-70
2023/04/14 01:17:21;;;;;;;7.77;1.43;;;7.50;99.90;;;;;;5050368;28;20177;-71
2023/04/14 01:20:16;;;;;;;3.93;1.03;;;7.60;99.90;;;;;;5050781;28;20303;-70
2023/04/14 01:22:48;;;;;;;11.97;1.63;;;7.50;99.90;;;;;;5049989;28;20216;-70
2023/04/14 01:26:05;;;;;;;7.73;1.10;;;7.40;99.90;;;;;;5049296;28;20285;-71
2023/04/14 01:28:37;;;;;;;5.00;0.97;;;7.50;99.90;;;;;;5035462;28;20197;-69
2023/04/14 01:31:08;;;;;;;6.47;1.10;;;7.60;99.90;;;;;;5050428;28;20193;-69
2023/04/14 01:33:38;;;;;;;6.47;1.17;;;7.60;99.90;;;;;;5049380;28;20185;-69
2023/04/14 01:36:08;;;;;;;8.30;1.53;;;7.60;99.90;;;;;;5048848;28;20211;-70
2023/04/14 01:38:36;;;;;;;6.63;1.20;;;7.60;99.90;;;;;;5049171;28;20653;-69
2023/04/14 01:41:04;;;;;;;7.83;2.03;;;7.70;99.90;;;;;;5049647;28;20189;-70
2023/04/14 01:43:32;;;;;;;3.37;0.97;;;7.60;99.90;;;;;;5047029;28;20215;-70
2023/04/14 01:46:03;;;;;;;12.20;1.30;;;7.60;99.90;;;;;;5049127;28;20189;-70
2023/04/14 01:48:30;;;;;;;7.67;1.27;;;7.60;99.90;;;;;;5045968;28;20173;-70
2023/04/14 01:50:58;;;;;;;7.10;1.10;;;7.60;99.90;;;;;;5043829;28;20723;-71
2023/04/14 01:53:26;;;;;;;6.97;1.60;;;7.60;99.90;;;;;;5043854;28;20616;-72
2023/04/14 01:55:53;;;;;;;7.13;1.20;;;7.60;99.90;;;;;;5050211;28;20192;-72
2023/04/14 01:58:20;;;;;;;5.87;1.33;;;7.70;99.90;;;;;;5050119;28;20256;-72
2023/04/14 02:00:48;;;;;;;6.87;1.43;;;7.60;99.90;;;;;;5048975;28;20196;-70
2023/04/14 02:03:17;;;;;;;7.73;1.10;;;7.80;99.90;;;;;;5050547;28;20238;-70
2023/04/14 02:05:46;;;;;;;8.60;1.30;;;7.80;99.90;;;;;;5049605;28;20212;-70
2023/04/14 02:08:13;;;;;;;5.33;1.30;;;7.80;99.90;;;;;;5049840;28;20185;-72
2023/04/14 02:10:42;;;;;;;5.70;1.17;;;8.40;99.90;;;;;;5049938;28;20193;-70
2023/04/14 02:13:10;;;;;;;8.30;1.33;;;7.70;99.90;;;;;;5050503;28;20204;-70
2023/04/14 02:15:36;;;;;;;13.83;1.27;;;7.80;99.90;;;;;;5050025;28;20192;-70
2023/04/14 02:18:04;;;;;;;8.37;1.10;;;7.80;99.90;;;;;;5050373;28;20205;-70
2023/04/14 02:20:32;;;;;;;7.57;1.47;;;7.80;99.90;;;;;;5049958;28;20242;-70
2023/04/14 02:22:58;;;;;;;6.53;1.20;;;7.80;99.90;;;;;;5050343;28;20169;-73
2023/04/14 02:25:29;;;;;;;14.40;1.50;;;7.80;99.90;;;;;;5050066;28;20177;-70
2023/04/14 02:28:00;;;;;;;10.57;1.30;;;7.80;99.90;;;;;;5049176;28;20211;-70
2023/04/14 02:30:32;;;;;;;15.30;2.13;;;7.80;99.90;;;;;;5047986;28;20188;-70
2023/04/14 02:33:04;;;;;;;6.33;1.40;;;7.80;99.90;;;;;;5048256;28;20180;-72
2023/04/14 02:35:38;;;;;;;8.33;1.20;;;7.80;99.90;;;;;;5049857;28;20648;-70
2023/04/14 02:38:21;;;;;;;11.53;1.40;;;7.70;99.90;;;;;;5040532;28;20258;-71
2023/04/14 02:40:46;;;;;;;7.40;1.30;;;7.80;99.90;;;;;;5047505;28;20243;-72
2023/04/14 02:43:23;;;;;;;10.57;1.53;;;7.70;99.90;;;;;;5042328;28;20177;-70
2023/04/14 02:45:51;;;;;;;7.53;1.30;;;7.70;99.90;;;;;;5047031;28;20189;-70
2023/04/14 02:48:20;;;;;;;7.30;1.23;;;7.80;99.90;;;;;;5049843;28;20208;-70
2023/04/14 02:50:49;;;;;;;10.23;1.17;;;7.70;99.90;;;;;;5047900;28;20181;-70
2023/04/14 02:53:19;;;;;;;4.43;0.90;;;7.70;99.90;;;;;;5049664;28;20718;-70
2023/04/14 02:55:48;;;;;;;9.67;1.30;;;7.70;99.90;;;;;;5047715;28;20643;-70
2023/04/14 02:58:15;;;;;;;9.27;1.23;;;7.80;99.90;;;;;;5046855;28;20233;-71
2023/04/14 03:00:42;;;;;;;8.23;1.37;;;7.70;99.90;;;;;;5047309;28;20178;-70
2023/04/14 03:03:10;;;;;;;7.53;1.20;;;7.80;99.90;;;;;;5049711;28;20695;-70
2023/04/14 03:05:37;;;;;;;11.93;1.87;;;7.80;99.90;;;;;;5049470;28;20246;-71
2023/04/14 03:08:04;;;;;;;8.87;1.27;;;7.80;99.90;;;;;;5040312;28;20192;-70
2023/04/14 03:10:31;;;;;;;7.57;1.30;;;7.80;99.90;;;;;;5044526;28;20256;-70
2023/04/14 03:13:00;;;;;;;8.80;1.30;;;7.60;99.90;;;;;;5043395;28;20169;-69
2023/04/14 03:15:26;;;;;;;12.47;1.70;;;7.80;99.90;;;;;;5049716;28;20659;-71
2023/04/14 03:17:56;;;;;;;9.17;1.40;;;7.70;99.90;;;;;;5050913;28;20828;-70
2023/04/14 03:20:22;;;;;;;8.47;1.40;;;7.30;99.90;;;;;;5045236;28;20660;-70
2023/04/14 03:23:05;;;;;;;8.27;1.83;;;7.70;99.90;;;;;;5051843;28;20181;-71
2023/04/14 03:25:37;;;;;;;16.30;1.73;;;7.70;99.90;;;;;;5053031;28;20184;-70
2023/04/14 03:28:09;;;;;;;15.97;1.80;;;7.70;99.90;;;;;;5052751;28;20887;-70
2023/04/14 03:30:37;;;;;;;8.40;1.53;;;7.70;99.90;;;;;;5052481;28;20185;-70
2023/04/14 03:33:07;;;;;;;7.27;1.27;;;7.80;99.90;;;;;;5051124;28;20689;-70
2023/04/14 03:35:36;;;;;;;9.63;1.30;;;7.70;99.90;;;;;;5052662;28;20197;-70
2023/04/14 03:38:07;;;;;;;10.00;1.33;;;7.70;99.90;;;;;;5052512;28;20636;-70
2023/04/14 03:40:34;;;;;;;11.20;1.43;;;7.80;99.90;;;;;;5050467;28;20188;-71
2023/04/14 03:43:02;;;;;;;10.77;1.30;;;8.00;99.90;;;;;;5050554;28;20172;-71
2023/04/14 03:45:28;;;;;;;8.23;1.50;;;7.60;99.90;;;;;;5048477;28;20209;-71
2023/04/14 03:48:01;;;;;;;12.97;1.33;;;7.80;99.90;;;;;;5050974;28;21579;-70
2023/04/14 03:50:31;;;;;;;9.83;1.60;;;7.80;99.90;;;;;;5049976;28;20232;-71
2023/04/14 03:53:00;;;;;;;11.60;1.30;;;7.90;99.90;;;;;;5050773;28;20169;-71
2023/04/14 03:55:26;;;;;;;11.07;1.40;;;7.80;99.90;;;;;;5044068;28;20173;-71
2023/04/14 03:57:55;;;;;;;12.80;2.10;;;7.70;99.90;;;;;;5051401;28;20273;-71
2023/04/14 04:00:22;;;;;;;7.73;1.10;;;7.70;99.90;;;;;;5052295;28;20656;-71
2023/04/14 04:02:49;;;;;;;10.50;1.40;;;7.70;99.90;;;;;;5052109;28;20189;-72
2023/04/14 04:05:15;;;;;;;7.57;1.23;;;7.80;99.90;;;;;;5052315;28;20177;-72
2023/04/14 04:07:43;;;;;;;9.17;1.63;;;7.70;99.90;;;;;;5050724;28;20511;-71
2023/04/14 04:10:12;;;;;;;9.43;1.40;;;7.50;99.90;;;;;;5050469;28;20636;-72
2023/04/14 04:12:41;;;;;;;8.47;1.60;;;7.70;99.90;;;;;;5042464;28;20170;-73
2023/04/14 04:15:08;;;;;;;12.03;1.80;;;7.60;99.90;;;;;;5048108;28;20173;-72
2023/04/14 04:17:36;;;;;;;10.80;1.53;;;7.70;99.90;;;;;;5051981;28;20329;-71
2023/04/14 04:20:06;;;;;;;9.27;1.30;;;7.70;99.90;;;;;;5048582;28;20323;-70
2023/04/14 04:22:36;;;;;;;13.73;1.90;;;7.80;99.90;;;;;;5045111;28;20316;-70
2023/04/14 04:25:03;;;;;;;17.67;1.23;;;7.40;99.90;;;;;;5048805;28;20659;-70
2023/04/14 04:27:29;;;;;;;10.47;1.27;;;;;;;;;;5050288;28;20185;-70
2023/04/14 04:29:55;;;;;;;14.70;1.30;;;;;;;;;;5047149;28;20173;-70
2023/04/14 04:32:21;;;;;;;10.13;1.60;;;7.70;99.90;;;;;;5050209;28;20177;-70
2023/04/14 04:34:49;;;;;;;10.97;1.60;;;7.60;99.90;;;;;;5051787;28;20184;-70
2023/04/14 04:37:16;;;;;;;9.57;1.80;;;7.70;99.90;;;;;;5043577;28;20688;-70
2023/04/14 04:39:41;;;;;;;9.10;1.50;;;7.70;99.90;;;;;;5051535;28;20235;-70
2023/04/14 04:42:07;;;;;;;14.90;1.90;;;7.80;99.90;;;;;;5047589;28;20633;-69
2023/04/14 04:44:33;;;;;;;11.83;1.30;;;7.70;99.90;;;;;;5039541;28;20231;-71
2023/04/14 04:46:59;;;;;;;11.20;1.60;;;7.80;99.90;;;;;;5043977;28;20243;-70
2023/04/14 04:49:25;;;;;;;11.43;1.60;;;7.80;99.90;;;;;;5037971;28;20228;-70
2023/04/14 04:51:51;;;;;;;9.00;1.73;;;7.80;99.90;;;;;;5039838;28;20509;-70
2023/04/14 04:54:17;;;;;;;9.23;1.73;;;7.80;99.90;;;;;;5040874;28;20236;-70
2023/04/14 04:56:43;;;;;;;9.93;1.30;;;7.80;99.90;;;;;;5038262;28;20237;-70
2023/04/14 04:59:10;;;;;;;14.87;1.97;;;7.80;99.90;;;;;;5048897;28;20233;-70
2023/04/14 05:01:35;;;;;;;9.37;1.30;;;7.80;99.90;;;;;;5049681;28;20177;-69
2023/04/14 05:04:01;;;;;;;11.90;1.97;;;7.80;99.90;;;;;;5042083;28;20540;-68
2023/04/14 05:06:27;;;;;;;14.97;1.47;;;7.70;99.90;;;;;;5048698;28;20580;-70
2023/04/14 05:08:56;;;;;;;10.73;1.40;;;7.70;99.90;;;;;;5049812;28;20540;-69
2023/04/14 05:11:23;;;;;;;16.77;1.73;;;7.70;99.90;;;;;;5048582;28;20258;-69
2023/04/14 05:13:49;;;;;;;14.33;1.53;;;7.60;99.90;;;;;;5044933;28;20184;-69
2023/04/14 05:16:15;;;;;;;12.07;1.57;;;7.50;99.90;;;;;;5041787;28;20285;-69
2023/04/14 05:18:41;;;;;;;10.97;1.43;;;7.60;99.90;;;;;;5049143;28;20292;-70
2023/04/14 05:21:11;;;;;;;6.03;1.10;;;7.20;99.90;;;;;;5046361;28;20248;-69
2023/04/14 05:23:39;;;;;;;8.93;1.50;;;5.50;99.90;;;;;;5050209;28;20256;-70
2023/04/14 05:26:05;;;;;;;11.67;1.80;;;7.60;99.90;;;;;;5050670;28;20181;-71
2023/04/14 05:28:31;;;;;;;11.90;1.20;;;7.60;99.90;;;;;;5046526;28;20227;-71
2023/04/14 05:30:57;;;;;;;7.87;1.30;;;7.50;99.90;;;;;;5046813;28;20173;-69
2023/04/14 05:33:23;;;;;;;8.97;1.10;;;;;;;;;;5047400;28;20192;-69
2023/04/14 05:35:49;;;;;;;7.03;1.00;;;7.50;99.90;;;;;;5049681;28;20231;-68
2023/04/14 05:38:17;;;;;;;6.87;1.27;;;7.60;99.90;;;;;;5049828;28;20259;-69
2023/04/14 05:40:42;;;;;;;9.67;1.77;;;7.70;99.90;;;;;;5049854;28;20191;-69
2023/04/14 05:43:08;;;;;;;9.93;1.70;;;7.60;99.90;;;;;;5049407;28;20787;-69
2023/04/14 05:45:34;;;;;;;9.00;1.40;;;7.60;99.90;;;;;;5046699;28;20173;-70
2023/04/14 05:48:00;;;;;;;6.70;1.07;;;7.70;99.90;;;;;;5048506;28;20185;-69
2023/04/14 05:50:26;;;;;;;7.10;1.20;;;7.70;99.90;;;;;;5048426;28;20176;-70
2023/04/14 05:52:52;;;;;;;8.87;1.13;;;7.80;99.90;;;;;;5048722;28;20181;-69
2023/04/14 05:55:18;;;;;;;6.43;1.30;;;7.80;99.90;;;;;;5047996;28;20177;-70
2023/04/14 05:57:44;;;;;;;4.70;1.20;;;7.70;99.90;;;;;;5048072;28;20256;-68
2023/04/14 06:00:11;;;;;;;12.27;1.50;;;7.60;99.90;;;;;;5048796;28;20762;-69
2023/04/14 06:02:39;;;;;;;8.87;1.10;;;7.80;99.90;;;;;;5044604;28;20254;-69
2023/04/14 06:05:06;;;;;;;7.60;1.30;;;7.80;99.90;;;;;;5045296;28;20303;-73
2023/04/14 06:07:32;;;;;;;11.23;1.43;;;7.90;99.90;;;;;;5043785;28;20177;-71
2023/04/14 06:09:58;;;;;;;6.20;1.10;;;7.80;99.90;;;;;;5048194;28;20177;-70
2023/04/14 06:12:23;;;;;;;3.20;1.00;;;7.90;99.90;;;;;;5044725;28;20595;-70
2023/04/14 06:14:49;;;;;;;7.63;1.40;;;7.90;99.90;;;;;;5046347;28;20611;-69
2023/04/14 06:17:15;;;;;;;12.03;1.33;;;7.80;99.90;;;;;;5048570;28;20177;-69
2023/04/14 06:19:41;;;;;;;7.50;1.43;;;7.80;99.90;;;;;;5047037;28;20836;-68
2023/04/14 06:22:07;;;;;;;8.07;1.27;;;7.80;99.90;;;;;;5042343;28;20231;-69
2023/04/14 06:24:33;;;;;;;11.57;1.37;;;7.80;99.90;;;;;;5045544;28;20184;-69
2023/04/14 06:26:59;;;;;;;7.47;0.97;;;7.80;99.90;;;;;;5041597;28;20189;-69
2023/04/14 06:29:26;;;;;;;10.33;1.50;;;7.90;99.90;;;;;;5048456;28;20181;-70
2023/04/14 06:31:53;;;;;;;10.87;1.30;;;7.90;99.90;;;;;;5048846;28;20184;-70
2023/04/14 06:34:19;;;;;;;6.47;1.37;;;7.80;99.90;;;;;;5048991;28;20207;-70
2023/04/14 06:36:45;;;;;;;8.33;1.43;;;8.00;99.90;;;;;;5043044;28;20252;-70
2023/04/14 06:39:11;;;;;;;3.73;1.27;;;7.90;99.90;;;;;;5048775;28;20209;-71
2023/04/14 06:41:37;;;;;;;8.77;2.27;;;7.90;99.90;;;;;;5049040;28;20230;-69
2023/04/14 06:44:02;;;;;;;11.63;1.70;;;;;;;;;;5048198;28;20594;-70
2023/04/14 06:46:28;;;;;;;9.20;1.30;;;8.00;99.90;;;;;;5048387;28;20758;-70
2023/04/14 06:48:54;;;;;;;10.77;1.67;;;7.70;99.90;;;;;;5048571;28;20189;-70
2023/04/14 06:51:19;;;;;;;7.80;1.67;;;7.90;99.90;;;;;;5048183;28;20662;-73
2023/04/14 06:53:46;;;;;;;9.07;1.83;;;;;;;;;;5051260;28;20713;-70
2023/04/14 06:56:12;;;;;;;10.17;1.83;;;8.00;99.90;;;;;;5052034;28;20177;-68
2023/04/14 06:58:38;;;;;;;11.33;1.57;;;8.10;99.90;;;;;;5051387;28;20223;-69
2023/04/14 07:01:04;;;;;;;8.77;1.37;;;8.20;99.90;;;;;;5052354;28;20189;-69
2023/04/14 07:03:30;;;;;;;6.43;1.43;;;8.10;99.90;;;;;;5052286;28;20196;-69
2023/04/14 07:06:03;;;;;;;7.00;1.40;;;8.10;99.90;;;;;;5051286;28;20173;-68
2023/04/14 07:08:31;;;;;;;6.87;1.40;;;8.10;99.90;;;;;;5052273;28;20715;-68
2023/04/14 07:11:04;;;;;;;8.20;1.70;;;8.20;99.90;;;;;;5052296;28;20189;-71
2023/04/14 07:13:30;;;;;;;10.00;1.70;;;8.30;99.90;;;;;;5051784;28;20189;-72
2023/04/14 07:15:56;;;;;;;9.00;1.43;;;8.30;99.90;;;;;;5051181;28;20714;-72
2023/04/14 07:18:22;;;;;;;10.43;1.60;;;8.40;99.90;;;;;;5051307;28;20217;-71
2023/04/14 07:20:51;;;;;;;10.27;1.50;;;8.30;99.90;;;;;;5046431;28;20185;-71
2023/04/14 07:23:17;;;;;;;6.37;1.40;;;8.40;99.90;;;;;;5050220;28;20183;-69
2023/04/14 07:25:43;;;;;;;7.70;1.27;;;8.30;99.90;;;;;;5052159;28;20181;-69
2023/04/14 07:28:09;;;;;;;7.50;1.50;;;8.30;99.90;;;;;;5051202;28;20227;-69
2023/04/14 07:30:35;;;;;;;9.13;1.80;;;9.00;99.90;;;;;;5052117;28;20212;-70
2023/04/14 07:33:01;;;;;;;7.07;1.60;;;8.20;99.90;;;;;;5050100;28;20192;-69
2023/04/14 07:35:27;;;;;;;12.30;1.87;;;8.80;99.90;;;;;;5051258;28;20177;-69
2023/04/14 07:37:53;;;;;;;13.43;1.80;;;8.20;99.90;;;;;;5051566;28;20185;-69
2023/04/14 07:40:19;;;;;;;9.27;1.40;;;8.50;99.90;;;;;;5050875;28;20288;-69
2023/04/14 07:42:45;;;;;;;13.73;1.30;;;8.30;99.90;;;;;;5051761;28;20252;-69
2023/04/14 07:45:11;;;;;;;13.73;1.70;;;8.20;99.90;;;;;;5052731;28;20173;-69
2023/04/14 07:47:37;;;;;;;9.03;1.77;;;8.10;99.90;;;;;;5045626;28;20193;-69
2023/04/14 07:50:03;;;;;;;11.70;1.93;;;8.10;99.90;;;;;;5052314;28;20181;-69
2023/04/14 07:52:29;;;;;;;9.37;1.13;;;8.20;99.90;;;;;;5051148;28;20188;-70
2023/04/14 07:54:55;;;;;;;9.17;1.33;;;8.20;99.90;;;;;;5049928;28;20173;-69
2023/04/14 07:57:21;;;;;;;14.27;1.90;;;8.30;99.90;;;;;;5049922;28;20189;-69
2023/04/14 07:59:47;;;;;;;6.87;1.30;;;8.30;99.90;;;;;;5045618;28;20248;-70
2023/04/14 08:02:12;;;;;;;5.07;1.30;;;8.30;99.90;;;;;;5052069;28;20367;-69
2023/04/14 08:04:38;;;;;;;10.03;1.70;;;8.20;99.90;;;;;;5051905;28;20551;-70
2023/04/14 08:07:04;;;;;;;11.23;1.80;;;8.30;99.90;;;;;;5052165;28;20227;-69
2023/04/14 08:09:29;;;;;;;10.50;1.70;;;8.10;99.90;;;;;;5052562;28;20254;-70
2023/04/14 08:11:56;;;;;;;2.97;0.73;;;8.10;99.90;;;;;;5052287;28;20185;-69
2023/04/14 08:14:22;;;;;;;6.17;1.10;;;7.90;99.90;;;;;;5052487;28;20272;-71
2023/04/14 08:16:48;;;;;;;6.67;1.00;;;7.80;99.90;;;;;;5052596;28;20177;-70
2023/04/14 08:19:14;;;;;;;7.10;0.97;;;7.90;99.90;;;;;;5047522;28;20254;-70
2023/04/14 08:21:39;;;;;;;5.33;1.30;;;8.00;99.90;;;;;;5052072;28;20177;-70
2023/04/14 08:24:05;;;;;;;4.93;1.20;;;8.00;99.90;;;;;;5051936;28;20182;-70
2023/04/14 08:26:31;;;;;;;7.73;1.07;;;8.00;99.90;;;;;;5052411;28;20177;-70
2023/04/14 08:28:56;;;;;;;5.80;1.13;;;7.90;99.90;;;;;;5050537;28;20200;-70
2023/04/14 08:31:23;;;;;;;8.73;1.40;;;7.80;99.90;;;;;;5052203;28;20173;-70
2023/04/14 08:33:49;;;;;;;3.67;0.50;;;7.90;99.90;;;;;;5051892;28;20180;-70
2023/04/14 08:36:15;;;;;;;4.60;1.10;;;7.70;99.90;;;;;;5051896;28;20185;-70
2023/04/14 08:38:41;;;;;;;9.00;1.40;;;;;;;;;;5051539;28;20212;-70
2023/04/14 08:41:10;;;;;;;6.87;1.40;;;8.00;99.90;;;;;;5050481;28;20276;-70
2023/04/14 08:43:36;;;;;;;2.87;0.70;;;7.60;99.90;;;;;;5051667;28;20267;-70
2023/04/14 08:46:03;;;;;;;2.90;0.80;;;7.80;99.90;;;;;;5051892;28;20331;-70
2023/04/14 08:48:30;;;;;;;6.40;0.80;;;7.70;99.90;;;;;;5051568;28;20177;-70
2023/04/14 08:51:38;;;;;;;5.10;0.90;;;7.80;99.90;;;;;;5051672;28;20181;-70
2023/04/14 08:54:10;;;;;;;5.80;0.93;;;7.90;99.90;;;;;;5051288;28;20211;-70
2023/04/14 08:56:40;;;;;;;6.83;1.20;;;7.80;99.90;;;;;;5051725;28;20192;-71
2023/04/14 08:59:08;;;;;;;5.93;0.97;;;8.10;99.90;;;;;;5049865;28;20259;-70
2023/04/14 09:01:35;;;;;;;6.57;0.90;;;8.10;99.90;;;;;;5051506;28;20184;-70
2023/04/14 09:04:03;;;;;;;7.20;1.20;;;8.10;99.90;;;;;;5051255;28;20181;-70
2023/04/14 09:06:29;;;;;;;10.23;1.00;;;8.00;99.90;;;;;;5051408;28;20262;-70
2023/04/14 09:08:55;;;;;;;10.67;1.40;;;8.00;99.90;;;;;;5051087;28;20223;-70
2023/04/14 09:11:21;;;;;;;4.30;1.17;;;8.00;99.90;;;;;;5051398;28;20181;-70
2023/04/14 09:13:48;;;;;;;6.53;1.20;;;8.00;99.90;;;;;;5050891;28;20185;-70
2023/04/14 09:16:16;;;;;;;6.67;0.80;;;8.00;99.90;;;;;;5050230;28;20177;-70
2023/04/14 09:18:42;;;;;;;5.60;0.83;;;9.60;99.90;;;;;;5050741;28;20207;-70
2023/04/14 09:21:10;;;;;;;3.97;0.83;;;8.00;99.90;;;;;;5051168;28;20234;-70
2023/04/14 09:23:36;;;;;;;5.07;1.07;;;8.20;99.90;;;;;;5050695;28;20242;-70
2023/04/14 09:26:07;;;;;;;3.50;1.40;;;8.30;99.90;;;;;;5051008;28;20173;-70
2023/04/14 09:28:34;;;;;;;7.67;1.10;;;8.30;99.90;;;;;;5050807;28;20181;-70
2023/04/14 09:31:01;;;;;;;5.40;1.00;;;8.20;99.90;;;;;;5050938;28;20696;-69
2023/04/14 09:33:27;;;;;;;6.93;1.00;;;8.20;99.90;;;;;;5049604;28;20558;-70
2023/04/14 09:35:53;;;;;;;6.00;1.07;;;8.10;99.90;;;;;;5050346;28;20185;-70
2023/04/14 09:38:36;;;;;;;8.97;1.27;;;8.30;99.90;;;;;;5050860;28;20287;-70
2023/04/14 09:41:04;;;;;;;6.70;1.00;;;8.30;99.90;;;;;;5050446;28;20723;-70
2023/04/14 09:43:29;;;;;;;6.90;1.43;;;8.40;99.90;;;;;;5050819;28;20181;-69
2023/04/14 09:45:57;;;;;;;5.20;1.00;;;8.60;99.90;;;;;;5050540;28;20191;-70
2023/04/14 09:48:23;;;;;;;11.60;1.10;;;8.70;99.90;;;;;;5050909;28;20211;-70
2023/04/14 09:51:08;;;;;;;7.53;1.00;;;9.00;99.90;;;;;;5050269;28;20174;-70
2023/04/14 09:53:39;;;;;;;5.10;1.10;;;8.90;99.90;;;;;;5050384;28;20176;-70
2023/04/14 09:56:09;;;;;;;6.60;1.20;;;8.80;99.90;;;;;;5050191;28;20173;-70
2023/04/14 09:58:37;;;;;;;7.63;1.20;;;8.80;99.90;;;;;;5047904;28;20323;-69
2023/04/14 10:01:12;;;;;;;5.87;1.13;;;9.10;99.90;;;;;;5049681;28;20196;-70
2023/04/14 10:03:40;;;;;;;5.00;1.20;;;9.40;99.90;;;;;;5050268;28;20177;-70
2023/04/14 10:06:15;;;;;;;7.40;1.20;;;9.60;99.90;;;;;;5050673;28;20223;-69
2023/04/14 10:08:43;;;;;;;12.33;1.00;;;9.70;99.90;;;;;;5050084;28;20702;-70
2023/04/14 10:11:24;;;;;;;4.87;0.83;;;9.80;99.90;;;;;;5050404;28;20185;-69
2023/04/14 10:13:55;;;;;;;5.00;0.90;;;9.90;99.90;;;;;;5049957;28;20195;-69
2023/04/14 10:16:21;;;;;;;5.00;1.00;;;;;;;;;;5050176;28;20177;-70
2023/04/14 10:18:47;;;;;;;7.60;0.80;;;10.00;99.90;;;;;;5049948;28;20236;-70
2023/04/14 10:21:14;;;;;;;4.90;1.17;;;10.20;99.90;;;;;;5050331;28;20169;-70
2023/04/14 10:23:41;;;;;;;4.77;1.13;;;10.10;99.90;;;;;;5050030;28;20184;-70
2023/04/14 10:26:08;;;;;;;4.33;1.10;;;10.40;99.90;;;;;;5050359;28;20705;-70
2023/04/14 10:28:36;;;;;;;6.13;1.20;;;11.30;99.90;;;;;;5054396;28;20173;-70
2023/04/14 10:31:07;;;;;;;4.93;1.27;;;11.60;99.90;;;;;;5054058;28;20192;-70
2023/04/14 10:33:36;;;;;;;2.37;0.90;;;10.70;99.90;;;;;;5054411;28;20661;-70
2023/04/14 10:36:02;;;;;;;3.63;0.80;;;10.60;99.90;;;;;;5053813;28;20173;-70
2023/04/14 10:38:38;;;;;;;5.83;0.83;;;10.70;99.90;;;;;;5054255;28;20196;-70
2023/04/14 10:41:05;;;;;;;6.60;1.30;;;10.30;99.90;;;;;;5054103;28;20234;-70
2023/04/14 10:43:33;;;;;;;7.93;1.07;;;10.20;99.90;;;;;;5054291;28;20193;-70
2023/04/14 10:45:59;;;;;;;5.23;1.10;;;10.10;99.90;;;;;;5053814;28;20236;-71
2023/04/14 10:48:25;;;;;;;6.10;1.07;;;10.60;99.90;;;;;;5054101;28;20189;-70
2023/04/14 10:50:57;;;;;;;4.00;1.10;;;10.70;99.90;;;;;;5053524;28;20238;-70
2023/04/14 10:53:25;;;;;;;5.80;1.13;;;11.00;99.90;;;;;;5053997;28;20173;-70
2023/04/14 10:55:53;;;;;;;3.37;0.90;;;10.90;99.90;;;;;;5053799;28;20659;-70
2023/04/14 10:58:22;;;;;;;7.57;1.20;;;10.60;99.90;;;;;;5053872;28;20253;-70
2023/04/14 11:00:48;;;;;;;4.87;1.20;;;10.60;99.90;;;;;;5053449;28;20188;-70
2023/04/14 11:03:17;;;;;;;6.20;1.17;;;10.40;99.90;;;;;;5053811;28;20177;-69
2023/04/14 11:05:50;;;;;;;6.17;1.33;;;10.70;99.90;;;;;;5053379;28;20169;-70
2023/04/14 11:08:26;;;;;;;3.73;1.00;;;11.20;99.90;;;;;;5053558;28;20624;-70
2023/04/14 11:11:03;;;;;;;5.00;1.00;;;11.00;99.90;;;;;;5053322;28;20644;-70
2023/04/14 11:13:32;;;;;;;3.40;0.80;;;11.60;99.90;;;;;;5045728;28;20195;-70
2023/04/14 11:16:03;;;;;;;4.10;0.87;;;11.00;99.90;;;;;;5053266;28;20181;-70
2023/04/14 11:18:29;;;;;;;7.83;1.17;;;10.50;99.90;;;;;;5045062;28;20240;-69
2023/04/14 11:21:06;;;;;;;5.20;1.10;;;10.40;99.90;;;;;;5055346;28;20192;-70
2023/04/14 11:23:33;;;;;;;2.80;0.70;;;10.50;99.90;;;;;;5045362;28;20255;-69
2023/04/14 11:26:00;;;;;;;3.90;0.80;;;10.10;99.90;;;;;;5053160;28;20184;-69
2023/04/14 11:28:37;;;;;;;5.23;0.80;;;9.90;99.90;;;;;;5053423;28;20185;-70
2023/04/14 11:31:04;;;;;;;2.67;0.90;;;9.60;99.90;;;;;;5052865;28;20173;-70
2023/04/14 11:33:32;;;;;;;8.73;1.27;;;10.20;99.90;;;;;;5053325;28;20177;-69
2023/04/14 11:36:00;;;;;;;3.17;0.90;;;10.20;99.90;;;;;;5052897;28;20644;-70
2023/04/14 11:38:26;;;;;;;4.80;0.80;;;10.30;99.90;;;;;;5051927;28;20196;-70
2023/04/14 11:40:53;;;;;;;5.97;1.30;;;;;;;;;;5052619;28;20271;-69
2023/04/14 11:43:20;;;;;;;6.90;1.17;;;9.80;99.90;;;;;;5053080;28;20636;-70
2023/04/14 11:45:47;;;;;;;4.13;1.10;;;;;;;;;;5052549;28;20192;-70
2023/04/14 11:48:15;;;;;;;4.90;1.00;;;10.50;99.90;;;;;;5052789;28;20177;-70
2023/04/14 11:50:42;;;;;;;5.43;1.20;;;10.50;99.90;;;;;;5052788;28;20234;-70
2023/04/14 11:53:10;;;;;;;7.27;1.43;;;10.40;99.90;;;;;;5052853;28;20181;-69
2023/04/14 11:55:36;;;;;;;3.77;1.30;;;10.30;99.90;;;;;;5052907;28;20258;-69
2023/04/14 11:58:03;;;;;;;7.33;1.10;;;10.10;99.90;;;;;;5052090;28;20224;-69
2023/04/14 12:00:29;;;;;;;2.73;0.90;;;10.20;99.90;;;;;;5052603;28;20196;-69
2023/04/14 12:02:56;;;;;;;4.97;1.13;;;10.10;99.90;;;;;;5052226;28;20266;-69
2023/04/14 12:05:29;;;;;;;7.07;1.13;;;10.30;99.90;;;;;;5051440;28;20181;-70
2023/04/14 12:08:00;;;;;;;8.23;1.03;;;10.30;99.90;;;;;;5052150;28;20180;-69
2023/04/14 12:10:26;;;;;;;4.00;1.10;;;10.60;99.90;;;;;;5052476;28;20182;-70
2023/04/14 12:13:03;;;;;;;4.63;1.10;;;10.50;99.90;;;;;;5051935;28;20216;-69
2023/04/14 12:15:35;;;;;;;6.83;1.20;;;10.50;99.90;;;;;;5052296;28;20185;-69
2023/04/14 12:18:01;;;;;;;3.27;1.07;;;10.60;99.90;;;;;;5052051;28;20186;-69
2023/04/14 12:20:29;;;;;;;5.07;1.03;;;10.60;99.90;;;;;;5052299;28;20189;-70
2023/04/14 12:23:01;;;;;;;3.20;1.10;;;10.50;99.90;;;;;;5052046;28;20181;-69
2023/04/14 12:25:34;;;;;;;5.07;1.13;;;10.30;99.90;;;;;;5052180;28;20185;-69
2023/04/14 12:28:05;;;;;;;7.07;1.10;;;10.40;99.90;;;;;;5051920;28;20223;-69
2023/04/14 12:30:32;;;;;;;3.20;0.83;;;10.50;99.90;;;;;;5043992;28;20636;-70
2023/04/14 12:32:57;;;;;;;5.00;1.10;;;10.50;99.90;;;;;;5051766;28;20184;-69
2023/04/14 12:35:23;;;;;;;3.17;1.10;;;10.60;99.90;;;;;;5051988;28;20264;-69
2023/04/14 12:37:50;;;;;;;4.07;1.20;;;10.60;99.90;;;;;;5051379;28;20185;-70
2023/04/14 12:40:17;;;;;;;3.97;1.10;;;10.80;99.90;;;;;;5051851;28;20220;-69
2023/04/14 12:42:47;;;;;;;5.90;1.00;;;10.80;99.90;;;;;;5050303;28;20280;-69
2023/04/14 12:45:15;;;;;;;2.70;1.03;;;11.20;99.90;;;;;;5051867;28;20235;-70
2023/04/14 12:47:51;;;;;;;5.50;1.50;;;11.30;99.90;;;;;;5051688;28;20184;-70
2023/04/14 12:50:29;;;;;;;6.27;1.33;;;11.40;99.90;;;;;;5048976;28;20196;-69
2023/04/14 12:52:59;;;;;;;3.50;1.30;;;11.30;99.90;;;;;;5051152;28;20287;-69
2023/04/14 12:55:29;;;;;;;3.63;1.07;;;11.30;99.90;;;;;;5051766;28;20220;-69
2023/04/14 12:57:58;;;;;;;3.63;0.93;;;11.30;99.90;;;;;;5049839;28;20280;-69
2023/04/14 13:00:26;;;;;;;4.07;1.10;;;11.50;99.90;;;;;;5051617;28;20300;-69